createdAt,value
2023-03-11T00:00:17.021Z,2.70
2023-03-11T00:02:47.596Z,2.72
2023-03-11T00:05:28.678Z,2.71
2023-03-11T00:07:55.929Z,2.71
2023-03-11T00:10:37.311Z,2.71
2023-03-11T00:13:05.920Z,2.73
2023-03-11T00:15:33.595Z,2.72
2023-03-11T00:18:00.495Z,2.72
2023-03-11T00:20:33.597Z,2.72
2023-03-11T00:23:00.929Z,2.73
2023-03-11T00:25:30.257Z,2.72
2023-03-11T00:27:57.458Z,2.72
2023-03-11T00:30:24.969Z,2.71
2023-03-11T00:32:54.208Z,2.71
2023-03-11T00:35:26.086Z,2.71
2023-03-11T00:37:58.501Z,2.71
2023-03-11T00:40:27.591Z,2.72
2023-03-11T00:42:54.215Z,2.72
2023-03-11T00:45:20.772Z,2.72
2023-03-11T00:47:47.409Z,2.72
2023-03-11T00:50:21.964Z,2.70
2023-03-11T00:52:49.896Z,2.70
2023-03-11T00:55:28.297Z,2.68
2023-03-11T00:58:00.680Z,2.65
2023-03-11T01:00:28.355Z,2.63
2023-03-11T01:02:55.891Z,2.60
2023-03-11T01:05:25.708Z,2.57
2023-03-11T01:07:52.140Z,2.54
2023-03-11T01:10:21.542Z,2.52
2023-03-11T01:12:48.494Z,2.51
2023-03-11T01:15:20.164Z,2.47
2023-03-11T01:17:46.669Z,2.48
2023-03-11T01:20:13.931Z,2.46
2023-03-11T01:22:40.333Z,2.43
2023-03-11T01:25:07.231Z,2.42
2023-03-11T01:27:33.644Z,2.41
2023-03-11T01:30:02.114Z,2.42
2023-03-11T01:32:28.601Z,2.42
2023-03-11T01:34:54.947Z,2.45
2023-03-11T01:37:21.341Z,2.46
2023-03-11T01:39:47.688Z,2.48
2023-03-11T01:42:14.097Z,2.52
2023-03-11T01:44:40.430Z,2.53
2023-03-11T01:47:09.739Z,2.54
2023-03-11T01:49:41.774Z,2.57
2023-03-11T01:52:08.923Z,2.60
2023-03-11T01:54:41.410Z,2.59
2023-03-11T01:57:12.331Z,2.60
2023-03-11T01:59:44.611Z,2.63
2023-03-11T02:02:20.086Z,2.65
2023-03-11T02:04:47.149Z,2.66
2023-03-11T02:07:14.541Z,2.67
2023-03-11T02:09:41.071Z,2.66
2023-03-11T02:12:11.092Z,2.65
2023-03-11T02:14:41.993Z,2.66
2023-03-11T02:17:08.802Z,2.66
2023-03-11T02:19:35.161Z,2.66
2023-03-11T02:22:02.349Z,2.64
2023-03-11T02:24:45.252Z,2.63
2023-03-11T02:27:16.398Z,2.63
2023-03-11T02:29:44.569Z,2.62
2023-03-11T02:32:11.362Z,2.63
2023-03-11T02:34:39.554Z,2.62
2023-03-11T02:37:08.374Z,2.61
2023-03-11T02:39:37.334Z,2.60
2023-03-11T02:42:18.676Z,2.57
2023-03-11T02:44:48.226Z,2.56
2023-03-11T02:47:16.526Z,2.56
2023-03-11T02:49:43.043Z,2.53
2023-03-11T02:52:09.389Z,2.51
2023-03-11T02:54:35.737Z,2.48
2023-03-11T02:57:02.080Z,2.44
2023-03-11T02:59:28.456Z,2.39
2023-03-11T03:01:54.904Z,2.38
2023-03-11T03:04:21.298Z,2.35
2023-03-11T03:06:47.766Z,2.33
2023-03-11T03:09:14.109Z,2.30
2023-03-11T03:11:40.441Z,2.28
2023-03-11T03:14:06.751Z,2.26
2023-03-11T03:16:33.324Z,2.25
2023-03-11T03:18:59.757Z,2.24
2023-03-11T03:21:26.140Z,2.22
2023-03-11T03:23:52.496Z,2.24
2023-03-11T03:26:18.832Z,2.25
2023-03-11T03:28:45.183Z,2.25
2023-03-11T03:31:11.997Z,2.25
2023-03-11T03:33:38.468Z,2.24
2023-03-11T03:36:10.394Z,2.22
2023-03-11T03:38:36.891Z,2.21
2023-03-11T03:41:03.425Z,2.19
2023-03-11T03:43:29.890Z,2.17
2023-03-11T03:45:58.525Z,2.15
2023-03-11T03:48:25.023Z,2.15
2023-03-11T03:50:51.835Z,2.14
2023-03-11T03:53:18.674Z,2.13
2023-03-11T03:55:45.129Z,2.13
2023-03-11T03:58:11.572Z,2.13
2023-03-11T04:00:39.270Z,2.14
2023-03-11T04:03:06.424Z,2.15
2023-03-11T04:05:33.935Z,2.17
2023-03-11T04:08:00.559Z,2.18
2023-03-11T04:10:26.956Z,2.19
2023-03-11T04:12:53.353Z,2.22
2023-03-11T04:15:19.705Z,2.24
2023-03-11T04:17:46.047Z,2.24
2023-03-11T04:20:12.536Z,2.25
2023-03-11T04:22:38.886Z,2.26
2023-03-11T04:25:05.633Z,2.26
2023-03-11T04:27:31.963Z,2.25
2023-03-11T04:29:58.341Z,2.24
2023-03-11T04:32:24.783Z,2.21
2023-03-11T04:34:51.229Z,2.17
2023-03-11T04:37:17.601Z,2.15
2023-03-11T04:39:43.996Z,2.13
2023-03-11T04:42:10.429Z,2.13
2023-03-11T04:44:36.829Z,2.11
2023-03-11T04:47:03.173Z,2.08
2023-03-11T04:49:29.582Z,2.05
2023-03-11T04:51:56.627Z,2.02
2023-03-11T04:54:22.956Z,1.98
2023-03-11T04:56:49.284Z,1.94
2023-03-11T04:59:15.672Z,1.90
2023-03-11T05:01:42.047Z,1.85
2023-03-11T05:04:08.583Z,1.82
2023-03-11T05:06:35.013Z,1.76
2023-03-11T05:09:01.383Z,1.73
2023-03-11T05:11:27.705Z,1.68
2023-03-11T05:13:54.081Z,1.62
2023-03-11T05:16:20.550Z,1.59
2023-03-11T05:18:46.983Z,1.55
2023-03-11T05:21:13.437Z,1.51
2023-03-11T05:23:39.863Z,1.46
2023-03-11T05:26:06.268Z,1.42
2023-03-11T05:28:32.651Z,1.38
2023-03-11T05:30:59.122Z,1.34
2023-03-11T05:33:25.616Z,1.32
2023-03-11T05:35:52.224Z,1.29
2023-03-11T05:38:18.679Z,1.26
2023-03-11T05:40:45.135Z,1.23
2023-03-11T05:43:11.618Z,1.22
2023-03-11T05:45:38.211Z,1.19
2023-03-11T05:48:04.682Z,1.16
2023-03-11T05:50:31.180Z,1.14
2023-03-11T05:52:57.572Z,1.10
2023-03-11T05:55:23.940Z,1.09
2023-03-11T05:57:51.753Z,1.05
2023-03-11T06:00:20.472Z,1.03
2023-03-11T06:02:46.872Z,1.00
2023-03-11T06:05:14.065Z,0.98
2023-03-11T06:07:40.585Z,0.96
2023-03-11T06:10:07.652Z,0.94
2023-03-11T06:12:35.170Z,0.95
2023-03-11T06:15:01.752Z,0.95
2023-03-11T06:17:30.326Z,0.94
2023-03-11T06:19:56.912Z,0.94
2023-03-11T06:22:23.218Z,0.96
2023-03-11T06:24:49.679Z,0.95
2023-03-11T06:27:16.071Z,0.96
2023-03-11T06:29:42.457Z,0.95
2023-03-11T06:32:08.835Z,0.96
2023-03-11T06:34:35.333Z,0.97
2023-03-11T06:37:01.797Z,0.95
2023-03-11T06:39:28.139Z,0.96
2023-03-11T06:41:54.591Z,0.96
2023-03-11T06:44:20.935Z,0.96
2023-03-11T06:46:47.278Z,0.95
2023-03-11T06:49:13.663Z,0.95
2023-03-11T06:51:40.082Z,0.95
2023-03-11T06:54:07.099Z,0.97
2023-03-11T06:56:33.898Z,0.97
2023-03-11T06:59:00.261Z,1.00
2023-03-11T07:01:28.038Z,1.02
2023-03-11T07:09:04.614Z,1.08
2023-03-11T07:11:30.991Z,1.10
2023-03-11T07:13:57.432Z,1.12
2023-03-11T07:16:26.629Z,1.14
2023-03-11T07:18:55.456Z,1.17
2023-03-11T07:21:22.935Z,1.19
2023-03-11T07:23:54.937Z,1.20
2023-03-11T07:26:23.012Z,1.23
2023-03-11T07:28:49.524Z,1.26
2023-03-11T07:31:18.800Z,1.27
2023-03-11T07:33:46.308Z,1.30
2023-03-11T07:36:18.525Z,1.34
2023-03-11T07:38:46.277Z,1.36
2023-03-11T07:41:14.204Z,1.39
2023-03-11T07:43:42.317Z,1.42
2023-03-11T07:46:12.687Z,1.45
2023-03-11T07:48:40.113Z,1.50
2023-03-11T07:51:12.527Z,1.52
2023-03-11T07:53:42.202Z,1.57
2023-03-11T07:56:10.891Z,1.61
2023-03-11T07:58:37.958Z,1.65
2023-03-11T08:01:06.965Z,1.68
2023-03-11T08:03:34.712Z,1.74
2023-03-11T08:06:01.511Z,1.78
2023-03-11T08:08:28.178Z,1.82
2023-03-11T08:10:54.572Z,1.87
2023-03-11T08:13:21.094Z,1.90
2023-03-11T08:15:47.621Z,1.94
2023-03-11T08:18:14.072Z,1.99
2023-03-11T08:20:40.595Z,2.02
2023-03-11T08:23:06.989Z,2.06
2023-03-11T08:25:33.499Z,2.11
2023-03-11T08:27:59.913Z,2.14
2023-03-11T08:30:26.414Z,2.19
2023-03-11T08:32:52.802Z,2.22
2023-03-11T08:35:22.293Z,2.25
2023-03-11T08:37:48.932Z,2.29
2023-03-11T08:40:17.612Z,2.32
2023-03-11T08:42:44.061Z,2.37
2023-03-11T08:45:12.860Z,2.40
2023-03-11T08:47:39.845Z,2.44
2023-03-11T08:50:09.377Z,2.48
2023-03-11T08:52:35.950Z,2.54
2023-03-11T08:55:04.758Z,2.59
2023-03-11T08:57:32.118Z,2.64
2023-03-11T09:00:01.241Z,2.67
2023-03-11T09:02:27.700Z,2.73
2023-03-11T09:04:57.364Z,2.77
2023-03-11T09:07:24.958Z,2.82
2023-03-11T09:09:51.373Z,2.86
2023-03-11T09:12:19.313Z,2.91
2023-03-11T09:14:45.854Z,2.95
2023-03-11T09:17:14.483Z,3.02
2023-03-11T09:19:40.910Z,3.09
2023-03-11T09:22:13.199Z,3.13
2023-03-11T09:24:39.618Z,3.22
2023-03-11T09:27:09.200Z,3.27
2023-03-11T09:29:35.770Z,3.35
2023-03-11T09:32:03.393Z,3.41
2023-03-11T09:34:29.750Z,3.48
2023-03-11T09:37:02.080Z,3.55
2023-03-11T09:39:28.460Z,3.63
2023-03-11T09:42:19.855Z,3.70
2023-03-11T09:44:55.507Z,3.82
2023-03-11T09:47:30.865Z,3.87
2023-03-11T09:50:23.700Z,3.95
2023-03-11T09:53:02.203Z,4.07
2023-03-11T09:55:33.766Z,4.17
2023-03-11T09:58:09.742Z,4.27
2023-03-11T10:00:36.711Z,4.38
2023-03-11T10:03:12.912Z,4.48
2023-03-11T10:05:42.196Z,4.64
2023-03-11T10:08:24.412Z,4.74
2023-03-11T10:11:05.821Z,4.89
2023-03-11T10:14:00.245Z,5.02
2023-03-11T10:16:41.063Z,5.17
2023-03-11T10:19:45.819Z,5.31
2023-03-11T10:22:32.181Z,5.47
2023-03-11T10:25:07.604Z,5.61
2023-03-11T10:28:13.192Z,5.74
2023-03-11T10:30:51.382Z,5.91
2023-03-11T10:33:37.168Z,6.03
2023-03-11T10:36:13.507Z,6.18
2023-03-11T10:38:46.570Z,6.33
2023-03-11T10:41:31.043Z,6.47
2023-03-11T10:44:05.921Z,6.63
2023-03-11T10:46:32.865Z,6.79
2023-03-11T10:48:59.306Z,6.91
2023-03-11T10:51:34.708Z,7.03
2023-03-11T10:54:03.405Z,7.19
2023-03-11T10:56:31.781Z,7.31
2023-03-11T10:58:59.482Z,7.41
2023-03-11T11:01:26.976Z,7.53
2023-03-11T11:03:56.599Z,7.63
2023-03-11T11:06:37.318Z,7.72
2023-03-11T11:09:16.716Z,7.84
2023-03-11T11:12:00.525Z,7.98
2023-03-11T11:14:45.739Z,8.10
2023-03-11T11:17:31.395Z,8.24
2023-03-11T11:19:59.077Z,8.42
2023-03-11T11:22:25.839Z,8.56
2023-03-11T11:24:55.575Z,8.68
2023-03-11T11:27:27.602Z,8.86
2023-03-11T11:30:14.903Z,9.10
2023-03-11T11:32:42.179Z,9.49
2023-03-11T11:35:14.981Z,9.94
2023-03-11T11:37:49.000Z,10.57
2023-03-11T11:40:21.695Z,11.32
2023-03-11T11:43:19.722Z,12.17
2023-03-11T11:45:53.391Z,13.12
2023-03-11T11:48:26.539Z,13.97
2023-03-11T11:50:59.064Z,14.70
2023-03-11T11:53:41.095Z,15.38
2023-03-11T11:56:07.551Z,15.96
2023-03-11T11:58:34.959Z,16.36
2023-03-11T12:01:08.457Z,16.71
2023-03-11T12:04:18.551Z,16.96
2023-03-11T12:07:17.301Z,17.17
2023-03-11T12:09:56.680Z,17.40
2023-03-11T12:12:55.299Z,17.64
2023-03-11T12:15:32.049Z,17.97
2023-03-11T12:18:08.546Z,18.29
2023-03-11T12:20:40.486Z,18.63
2023-03-11T12:23:17.055Z,18.94
2023-03-11T12:25:46.148Z,19.23
2023-03-11T12:28:31.874Z,19.40
2023-03-11T12:31:01.605Z,19.65
2023-03-11T12:34:03.050Z,19.77
2023-03-11T12:36:36.424Z,20.01
2023-03-11T12:39:19.429Z,20.12
2023-03-11T12:41:46.213Z,20.13
2023-03-11T12:44:29.921Z,20.04
2023-03-11T12:46:59.297Z,19.97
2023-03-11T12:49:30.520Z,19.62
2023-03-11T12:52:02.822Z,19.29
2023-03-11T12:54:36.250Z,19.12
2023-03-11T12:57:05.271Z,19.09
2023-03-11T12:59:49.955Z,19.18
2023-03-11T13:02:38.206Z,19.42
2023-03-11T13:08:13.706Z,19.77
2023-03-11T13:10:50.975Z,19.84
2023-03-11T13:13:32.940Z,19.98
2023-03-11T13:16:14.600Z,20.08
2023-03-11T13:18:46.578Z,20.20
2023-03-11T13:21:34.479Z,20.09
2023-03-11T13:24:19.305Z,19.96
2023-03-11T13:26:48.725Z,19.86
2023-03-11T13:29:46.969Z,19.65
2023-03-11T13:32:25.314Z,19.56
2023-03-11T13:35:13.724Z,19.52
2023-03-11T13:38:13.620Z,19.59
2023-03-11T13:40:42.730Z,19.69
2023-03-11T13:43:22.726Z,19.53
2023-03-11T13:46:22.277Z,19.23
2023-03-11T13:48:55.256Z,18.83
2023-03-11T13:51:44.892Z,18.52
2023-03-11T13:54:22.246Z,18.41
2023-03-11T13:56:54.023Z,18.30
2023-03-11T13:59:32.885Z,18.15
2023-03-11T14:02:03.928Z,18.10
2023-03-11T14:04:33.618Z,18.07
2023-03-11T14:07:00.596Z,18.14
2023-03-11T14:09:28.419Z,18.20
2023-03-11T14:12:03.391Z,18.30
2023-03-11T14:15:02.151Z,18.48
2023-03-11T14:17:28.669Z,18.79
2023-03-11T14:20:18.573Z,19.03
2023-03-11T14:22:51.170Z,19.36
2023-03-11T14:25:31.022Z,19.67
2023-03-11T14:28:01.196Z,20.02
2023-03-11T14:30:36.431Z,20.31
2023-03-11T14:33:21.665Z,20.55
2023-03-11T14:35:59.854Z,20.78
2023-03-11T14:38:29.301Z,20.89
2023-03-11T14:41:05.628Z,20.89
2023-03-11T14:43:37.481Z,20.94
2023-03-11T14:46:06.619Z,21.08
2023-03-11T14:48:43.788Z,21.29
2023-03-11T14:51:30.128Z,21.53
2023-03-11T14:54:17.610Z,21.77
2023-03-11T14:56:51.143Z,22.00
2023-03-11T14:59:26.985Z,22.17
2023-03-11T15:01:57.659Z,22.33
2023-03-11T15:04:38.069Z,22.47
2023-03-11T15:07:05.454Z,22.59
2023-03-11T15:09:32.781Z,22.60
2023-03-11T15:12:02.063Z,22.54
2023-03-11T15:14:31.820Z,22.50
2023-03-11T15:17:37.377Z,22.45
2023-03-11T15:20:28.026Z,22.53
2023-03-11T15:22:58.306Z,22.64
2023-03-11T15:25:24.919Z,22.68
2023-03-11T15:27:51.484Z,22.72
2023-03-11T15:30:24.056Z,22.70
2023-03-11T15:32:51.873Z,22.52
2023-03-11T15:35:21.680Z,22.18
2023-03-11T15:37:50.127Z,21.71
2023-03-11T15:40:23.420Z,21.06
2023-03-11T15:43:27.660Z,20.07
2023-03-11T15:45:56.331Z,19.17
2023-03-11T15:48:23.440Z,18.23
2023-03-11T15:50:55.273Z,17.30
2023-03-11T15:53:23.450Z,16.54
2023-03-11T15:55:51.416Z,15.82
2023-03-11T15:58:19.399Z,15.18
2023-03-11T16:00:51.966Z,14.57
2023-03-11T16:03:19.655Z,14.12
2023-03-11T16:05:46.814Z,13.67
2023-03-11T16:08:13.630Z,13.27
2023-03-11T16:10:41.133Z,12.91
2023-03-11T16:13:12.045Z,12.57
2023-03-11T16:15:38.714Z,12.26
2023-03-11T16:18:08.649Z,11.97
2023-03-11T16:20:41.292Z,11.68
2023-03-11T16:23:11.953Z,11.47
2023-03-11T16:25:40.503Z,11.26
2023-03-11T16:28:07.706Z,11.08
2023-03-11T16:30:35.325Z,10.91
2023-03-11T16:33:04.467Z,10.74
2023-03-11T16:35:32.000Z,10.60
2023-03-11T16:37:58.559Z,10.48
2023-03-11T16:40:28.165Z,10.33
2023-03-11T16:42:58.341Z,10.21
2023-03-11T16:45:24.965Z,10.07
2023-03-11T16:47:51.395Z,9.94
2023-03-11T16:50:17.942Z,9.83
2023-03-11T16:52:44.378Z,9.70
2023-03-11T16:55:10.824Z,9.58
2023-03-11T16:57:38.748Z,9.46
2023-03-11T17:00:07.061Z,9.32
2023-03-11T17:02:33.532Z,9.20
2023-03-11T17:05:00.103Z,9.07
2023-03-11T17:07:26.898Z,8.95
2023-03-11T17:09:53.340Z,8.85
2023-03-11T17:12:19.878Z,8.72
2023-03-11T17:14:46.697Z,8.59
2023-03-11T17:17:13.187Z,8.45
2023-03-11T17:19:39.727Z,8.31
2023-03-11T17:22:06.272Z,8.19
2023-03-11T17:24:32.857Z,8.07
2023-03-11T17:26:59.341Z,7.97
2023-03-11T17:29:25.829Z,7.87
2023-03-11T17:31:52.436Z,7.77
2023-03-11T17:34:18.951Z,7.68
2023-03-11T17:36:45.420Z,7.58
2023-03-11T17:39:11.896Z,7.47
2023-03-11T17:41:38.393Z,7.35
2023-03-11T17:44:05.408Z,7.24
2023-03-11T17:46:31.991Z,7.12
2023-03-11T17:48:58.495Z,6.99
2023-03-11T17:51:26.126Z,6.86
2023-03-11T17:53:55.048Z,6.74
2023-03-11T17:56:22.555Z,6.68
2023-03-11T17:58:50.291Z,6.60
2023-03-11T18:01:23.908Z,6.54
2023-03-11T18:03:50.641Z,6.50
2023-03-11T18:06:18.936Z,6.46
2023-03-11T18:08:45.765Z,6.42
2023-03-11T18:11:18.282Z,6.37
2023-03-11T18:13:45.255Z,6.34
2023-03-11T18:16:15.401Z,6.29
2023-03-11T18:18:43.025Z,6.24
2023-03-11T18:21:12.999Z,6.18
2023-03-11T18:23:40.240Z,6.13
2023-03-11T18:26:09.706Z,6.07
2023-03-11T18:28:36.115Z,6.02
2023-03-11T18:31:23.828Z,5.93
2023-03-11T18:33:56.742Z,5.91
2023-03-11T18:36:27.028Z,5.87
2023-03-11T18:38:54.817Z,5.83
2023-03-11T18:41:21.537Z,5.80
2023-03-11T18:43:52.657Z,5.75
2023-03-11T18:46:19.652Z,5.74
2023-03-11T18:48:46.441Z,5.69
2023-03-11T18:51:14.152Z,5.67
2023-03-11T18:53:42.737Z,5.63
2023-03-11T18:56:13.926Z,5.56
2023-03-11T18:58:40.554Z,5.53
2023-03-11T19:01:09.628Z,5.48
2023-03-11T19:03:36.368Z,5.44
2023-03-11T19:08:33.707Z,5.37
2023-03-11T19:11:00.209Z,5.35
2023-03-11T19:13:40.628Z,5.33
2023-03-11T19:16:09.407Z,5.32
2023-03-11T19:18:36.918Z,5.31
2023-03-11T19:21:05.882Z,5.28
2023-03-11T19:23:33.134Z,5.28
2023-03-11T19:26:03.242Z,5.27
2023-03-11T19:28:30.276Z,5.27
2023-03-11T19:30:58.909Z,5.26
2023-03-11T19:33:26.086Z,5.28
2023-03-11T19:35:54.667Z,5.28
2023-03-11T19:38:21.880Z,5.28
2023-03-11T19:40:53.449Z,5.26
2023-03-11T19:43:21.047Z,5.27
2023-03-11T19:45:49.753Z,5.24
2023-03-11T19:48:16.727Z,5.22
2023-03-11T19:50:43.439Z,5.21
2023-03-11T19:53:10.090Z,5.18
2023-03-11T19:55:36.717Z,5.16
2023-03-11T19:58:03.261Z,5.13
2023-03-11T20:00:30.570Z,5.11
2023-03-11T20:02:57.447Z,5.07
2023-03-11T20:05:23.976Z,5.07
2023-03-11T20:07:50.608Z,5.06
2023-03-11T20:10:17.656Z,5.06
2023-03-11T20:12:59.643Z,5.06
2023-03-11T20:15:28.745Z,5.05
2023-03-11T20:17:55.217Z,5.05
2023-03-11T20:20:21.881Z,5.05
2023-03-11T20:22:48.759Z,5.07
2023-03-11T20:25:18.371Z,5.10
2023-03-11T20:27:45.223Z,5.13
2023-03-11T20:30:12.617Z,5.14
2023-03-11T20:32:39.135Z,5.14
2023-03-11T20:35:06.429Z,5.13
2023-03-11T20:37:33.337Z,5.09
2023-03-11T20:39:59.868Z,5.08
2023-03-11T20:42:26.382Z,5.06
2023-03-11T20:44:53.738Z,5.03
2023-03-11T20:47:20.824Z,5.00
2023-03-11T20:49:47.518Z,4.96
2023-03-11T20:52:14.054Z,4.93
2023-03-11T20:54:40.754Z,4.90
2023-03-11T20:57:08.092Z,4.88
2023-03-11T20:59:34.591Z,4.86
2023-03-11T21:02:01.441Z,4.83
2023-03-11T21:04:28.004Z,4.83
2023-03-11T21:06:55.450Z,4.82
2023-03-11T21:09:22.123Z,4.82
2023-03-11T21:11:48.709Z,4.82
2023-03-11T21:14:17.242Z,4.80
2023-03-11T21:16:45.429Z,4.80
2023-03-11T21:19:13.618Z,4.77
2023-03-11T21:21:40.892Z,4.73
2023-03-11T21:24:08.166Z,4.72
2023-03-11T21:26:34.829Z,4.70
2023-03-11T21:29:01.877Z,4.68
2023-03-11T21:31:29.647Z,4.66
2023-03-11T21:33:58.788Z,4.64
2023-03-11T21:36:25.898Z,4.61
2023-03-11T21:38:52.560Z,4.59
2023-03-11T21:41:21.998Z,4.54
2023-03-11T21:43:48.812Z,4.53
2023-03-11T21:46:18.035Z,4.48
2023-03-11T21:48:46.107Z,4.43
2023-03-11T21:51:13.865Z,4.37
2023-03-11T21:53:40.630Z,4.32
2023-03-11T21:56:07.605Z,4.27
2023-03-11T21:58:34.915Z,4.21
2023-03-11T22:01:01.843Z,4.19
2023-03-11T22:03:28.829Z,4.17
2023-03-11T22:06:00.432Z,4.15
2023-03-11T22:08:27.114Z,4.17
2023-03-11T22:10:54.188Z,4.19
2023-03-11T22:13:21.219Z,4.20
2023-03-11T22:15:48.038Z,4.20
2023-03-11T22:18:14.695Z,4.20
2023-03-11T22:20:41.989Z,4.19
2023-03-11T22:23:09.148Z,4.19
2023-03-11T22:25:36.003Z,4.17
2023-03-11T22:28:02.707Z,4.15
2023-03-11T22:30:29.484Z,4.13
2023-03-11T22:32:56.025Z,4.11
2023-03-11T22:35:22.502Z,4.08
2023-03-11T22:37:49.059Z,4.06
2023-03-11T22:40:15.655Z,4.04
2023-03-11T22:42:42.194Z,4.03
2023-03-11T22:45:08.861Z,4.02
2023-03-11T22:47:35.367Z,4.00
2023-03-11T22:50:01.805Z,3.98
2023-03-11T22:52:28.298Z,3.98
2023-03-11T22:54:54.846Z,3.96
2023-03-11T22:57:21.408Z,3.96
2023-03-11T22:59:47.864Z,3.95
2023-03-11T23:02:14.434Z,3.95
2023-03-11T23:04:45.470Z,3.95
2023-03-11T23:07:12.531Z,3.96
2023-03-11T23:09:39.157Z,3.97
2023-03-11T23:12:06.911Z,3.99
2023-03-11T23:14:44.669Z,4.01
2023-03-11T23:17:12.371Z,4.03
2023-03-11T23:19:39.032Z,4.07
2023-03-11T23:22:07.007Z,4.10
2023-03-11T23:24:34.054Z,4.14
2023-03-11T23:27:00.635Z,4.19
2023-03-11T23:29:27.192Z,4.23
2023-03-11T23:31:53.771Z,4.27
2023-03-11T23:34:20.239Z,4.31
2023-03-11T23:36:46.819Z,4.35
2023-03-11T23:39:13.329Z,4.39
2023-03-11T23:41:39.756Z,4.45
2023-03-11T23:44:06.330Z,4.47
2023-03-11T23:46:32.983Z,4.51
2023-03-11T23:49:01.233Z,4.55
2023-03-11T23:51:28.063Z,4.60
2023-03-11T23:53:54.632Z,4.63
2023-03-11T23:56:21.156Z,4.65
2023-03-11T23:58:47.729Z,4.67
